Time;durP1;ratioP1;P1;durP2;ratioP2;P2;SDS_P1;SDS_P2;PMS_P1;PMS_P2;Temp;Humidity;BMP_temperature;BMP_pressure;BME280_temperature;BME280_humidity;BME280_pressure;Samples;Min_cycle;Max_cycle;Signal;HPM_P1;HPM_P2
2022/10/25 00:01:45;;;;;;;9.90;6.40;;;;;;;;;;6265791;22;20011;-82
2022/10/25 00:04:11;;;;;;;9.57;5.97;;;;;;;;;;6266093;22;20015;-82
2022/10/25 00:06:37;;;;;;;10.15;6.40;;;;;;;;;;6241992;22;20003;-83
2022/10/25 00:09:02;;;;;;;9.75;6.50;;;;;;;;;;6267776;22;20091;-83
2022/10/25 00:11:28;;;;;;;10.25;5.88;;;;;;;;;;6266541;22;20090;-82
2022/10/25 00:13:54;;;;;;;;;;;;;;;;;;6266308;22;20015;-81
2022/10/25 00:16:21;;;;;;;10.32;5.88;;;;;;;;;;6264347;22;19910;-81
2022/10/25 00:18:46;;;;;;;10.32;6.22;;;;;;;;;;6289180;22;20090;-81
2022/10/25 00:21:12;;;;;;;8.70;5.75;;;;;;;;;;6237657;22;20312;-81
2022/10/25 00:23:38;;;;;;;8.98;6.45;;;;;;;;;;6317637;22;20097;-82
2022/10/25 00:26:04;;;;;;;9.25;5.70;;;;;;;;;;6292674;22;20078;-82
2022/10/25 00:28:29;;;;;;;9.10;5.80;;;;;;;;;;6265056;22;20443;-82
2022/10/25 00:30:59;;;;;;;8.02;5.55;;;;;;;;;;6264880;22;20003;-81
2022/10/25 00:33:24;;;;;;;8.95;5.68;;;;;;;;;;6264707;22;20015;-82
2022/10/25 00:35:50;;;;;;;8.95;5.75;;;;;;;;;;6240239;22;20061;-82
2022/10/25 00:38:15;;;;;;;10.43;6.07;;;;;;;;;;6240282;22;20320;-81
2022/10/25 00:40:41;;;;;;;7.80;5.43;;;;;;;;;;6239683;22;19995;-82
2022/10/25 00:43:08;;;;;;;10.00;6.25;;;;;;;;;;6264865;22;20443;-81
2022/10/25 00:45:34;;;;;;;10.88;5.97;;;;;;;;;;6290286;22;20465;-83
2022/10/25 00:47:59;;;;;;;;;;;;;;;;;;6291024;22;20011;-81
2022/10/25 00:50:40;;;;;;;9.80;6.03;;;;;;;;;;6290756;22;19910;-84
2022/10/25 00:53:10;;;;;;;11.70;6.63;;;;;;;;;;6265586;22;20019;-80
2022/10/25 00:55:36;;;;;;;10.52;6.93;;;;;;;;;;6267530;22;20068;-83
2022/10/25 00:58:01;;;;;;;;;;;;;;;;;;6265930;22;20014;-82
2022/10/25 01:00:27;;;;;;;9.93;6.43;;;;;;;;;;6292449;22;19903;-84
2022/10/25 01:02:52;;;;;;;13.75;8.15;;;;;;;;;;6265954;22;20411;-82
2022/10/25 01:05:18;;;;;;;13.52;6.80;;;;;;;;;;6265239;22;20086;-82
2022/10/25 01:07:43;;;;;;;14.13;7.32;;;;;;;;;;6292973;22;20065;-82
2022/10/25 01:10:09;;;;;;;10.43;7.13;;;;;;;;;;6266816;22;20003;-83
2022/10/25 01:12:34;;;;;;;9.68;6.95;;;;;;;;;;6264888;22;20469;-83
2022/10/25 01:15:00;;;;;;;10.45;6.80;;;;;;;;;;6264937;22;20053;-83
2022/10/25 01:17:34;;;;;;;11.48;6.78;;;;;;;;;;6291079;22;20007;-82
2022/10/25 01:20:09;;;;;;;8.60;6.15;;;;;;;;;;6242674;22;20011;-82
2022/10/25 01:22:38;;;;;;;12.35;7.28;;;;;;;;;;6318708;22;20015;-82
2022/10/25 01:25:19;;;;;;;12.80;7.47;;;;;;;;;;6290839;22;20083;-83
2022/10/25 01:27:57;;;;;;;10.27;7.22;;;;;;;;;;6294386;22;20323;-83
2022/10/25 01:30:45;;;;;;;13.20;7.63;;;;;;;;;;6265281;22;20011;-83
2022/10/25 01:33:16;;;;;;;11.80;7.22;;;;;;;;;;6253841;22;20022;-82
2022/10/25 01:35:44;;;;;;;9.43;5.82;;;;;;;;;;6243038;22;20003;-82
2022/10/25 01:38:09;;;;;;;11.43;6.72;;;;;;;;;;6243637;22;20367;-83
2022/10/25 01:40:44;;;;;;;13.88;6.80;;;;;;;;;;6293592;22;19991;-83
2022/10/25 01:43:13;;;;;;;9.15;6.30;;;;;;;;;;6321222;22;20018;-83
2022/10/25 01:45:42;;;;;;;11.10;6.43;;;;;;;;;;6268005;22;20006;-82
2022/10/25 01:48:08;;;;;;;11.20;6.60;;;;;;;;;;6242357;22;20506;-82
2022/10/25 01:50:34;;;;;;;10.80;6.40;;;;;;;;;;6266612;22;20011;-82
2022/10/25 01:52:59;;;;;;;10.95;6.28;;;;;;;;;;6266088;22;20106;-81
2022/10/25 01:55:26;;;;;;;9.38;6.07;;;;;;;;;;6241020;22;20434;-83
2022/10/25 01:57:57;;;;;;;10.65;7.03;;;;;;;;;;6266339;22;20095;-83
2022/10/25 02:00:23;;;;;;;10.35;7.50;;;;;;;;;;6265060;22;20007;-82
2022/10/25 02:03:01;;;;;;;12.13;7.90;;;;;;;;;;6265100;22;20006;-82
2022/10/25 02:05:27;;;;;;;10.35;7.47;;;;;;;;;;6268050;22;20031;-83
2022/10/25 02:07:58;;;;;;;14.32;8.57;;;;;;;;;;6267960;22;20006;-82
2022/10/25 02:10:27;;;;;;;14.05;8.38;;;;;;;;;;6268090;22;20019;-83
2022/10/25 02:13:03;;;;;;;13.23;8.65;;;;;;;;;;6244360;22;20004;-82
2022/10/25 02:15:39;;;;;;;20.15;9.45;;;;;;;;;;6268036;22;20017;-83
2022/10/25 02:18:06;;;;;;;13.77;9.25;;;;;;;;;;6241998;22;20007;-81
2022/10/25 02:20:32;;;;;;;13.70;8.68;;;;;;;;;;6268768;22;20015;-82
2022/10/25 02:22:58;;;;;;;15.70;8.88;;;;;;;;;;6269472;22;20015;-83
2022/10/25 02:25:24;;;;;;;17.23;9.32;;;;;;;;;;6268079;22;20003;-82
2022/10/25 02:27:49;;;;;;;36.75;9.90;;;;;;;;;;6244589;22;20067;-82
2022/10/25 02:30:15;;;;;;;49.80;11.20;;;;;;;;;;6242146;22;20488;-81
2022/10/25 02:32:41;;;;;;;108.00;13.18;;;;;;;;;;6293985;22;20019;-83
2022/10/25 02:35:10;;;;;;;186.02;15.45;;;;;;;;;;6242966;22;20098;-83
2022/10/25 02:37:35;;;;;;;203.75;17.55;;;;;;;;;;6267026;22;20101;-83
2022/10/25 02:40:01;;;;;;;281.63;18.08;;;;;;;;;;6243507;22;20021;-83
2022/10/25 02:42:27;;;;;;;285.10;22.60;;;;;;;;;;6244833;22;20011;-83
2022/10/25 02:44:52;;;;;;;72.93;15.10;;;;;;;;;;6243438;22;20051;-82
2022/10/25 02:47:18;;;;;;;377.95;22.70;;;;;;;;;;6242183;22;20027;-82
2022/10/25 02:49:43;;;;;;;197.27;18.15;;;;;;;;;;6243569;22;20007;-84
2022/10/25 02:52:09;;;;;;;262.30;20.05;;;;;;;;;;6269035;22;20337;-83
2022/10/25 02:54:34;;;;;;;237.93;18.65;;;;;;;;;;6243151;22;19991;-82
2022/10/25 02:57:00;;;;;;;274.73;21.38;;;;;;;;;;6267743;22;20017;-83
2022/10/25 02:59:25;;;;;;;391.15;23.58;;;;;;;;;;6240250;22;20019;-83
2022/10/25 03:01:51;;;;;;;210.15;17.83;;;;;;;;;;6270570;22;20015;-82
2022/10/25 03:04:17;;;;;;;77.63;14.07;;;;;;;;;;6268452;22;20088;-82
2022/10/25 03:06:42;;;;;;;419.05;24.25;;;;;;;;;;6320952;22;20075;-83
2022/10/25 03:09:08;;;;;;;173.35;16.75;;;;;;;;;;6241695;22;20010;-84
2022/10/25 03:11:33;;;;;;;253.30;18.55;;;;;;;;;;6243682;22;20015;-83
2022/10/25 03:13:59;;;;;;;110.82;14.80;;;;;;;;;;6269724;22;20463;-83
2022/10/25 03:16:24;;;;;;;98.25;14.68;;;;;;;;;;6271023;22;20019;-82
2022/10/25 03:18:50;;;;;;;49.13;11.25;;;;;;;;;;6269030;22;19995;-83
2022/10/25 03:21:15;;;;;;;133.32;15.10;;;;;;;;;;6243405;22;20011;-84
2022/10/25 03:23:41;;;;;;;89.88;14.65;;;;;;;;;;6244378;22;19999;-82
2022/10/25 03:26:07;;;;;;;130.70;15.95;;;;;;;;;;6267346;22;20442;-82
2022/10/25 03:28:32;;;;;;;70.40;13.13;;;;;;;;;;6294645;22;20431;-83
2022/10/25 03:30:58;;;;;;;59.17;14.35;;;;;;;;;;6269668;22;20011;-82
2022/10/25 03:33:24;;;;;;;50.50;12.90;;;;;;;;;;6272088;22;20023;-81
2022/10/25 03:35:50;;;;;;;178.95;15.38;;;;;;;;;;6245187;22;20008;-83
2022/10/25 03:38:16;;;;;;;;;;;;;;;;;;6271868;22;20030;-82
2022/10/25 03:40:41;;;;;;;95.30;13.85;;;;;;;;;;6272180;22;19952;-82
2022/10/25 03:43:07;;;;;;;38.38;11.60;;;;;;;;;;6271143;22;20316;-82
2022/10/25 03:45:32;;;;;;;131.10;15.38;;;;;;;;;;6268317;22;20018;-81
2022/10/25 03:47:58;;;;;;;51.65;12.68;;;;;;;;;;6268768;22;20007;-84
2022/10/25 03:50:24;;;;;;;64.88;12.35;;;;;;;;;;6269040;22;20011;-81
2022/10/25 03:52:49;;;;;;;56.17;12.57;;;;;;;;;;6269301;22;20006;-82
2022/10/25 03:55:15;;;;;;;31.67;11.13;;;;;;;;;;6268335;22;20441;-81
2022/10/25 03:57:40;;;;;;;27.77;11.18;;;;;;;;;;6270310;22;20362;-82
2022/10/25 04:00:06;;;;;;;47.75;11.52;;;;;;;;;;6244771;22;20095;-82
2022/10/25 04:02:37;;;;;;;66.97;12.93;;;;;;;;;;6273302;22;20003;-80
2022/10/25 04:05:02;;;;;;;37.35;12.40;;;;;;;;;;6268652;22;20011;-82
2022/10/25 04:07:28;;;;;;;62.90;14.48;;;;;;;;;;6246837;22;20003;-82
2022/10/25 04:09:53;;;;;;;111.70;15.57;;;;;;;;;;6268076;22;20019;-82
2022/10/25 04:12:19;;;;;;;279.23;21.75;;;;;;;;;;6246066;22;20010;-82
2022/10/25 04:14:45;;;;;;;383.50;23.70;;;;;;;;;;6273068;22;20008;-82
2022/10/25 04:17:11;;;;;;;346.80;22.40;;;;;;;;;;6273650;22;20492;-80
2022/10/25 04:19:36;;;;;;;432.65;25.20;;;;;;;;;;6299288;22;20011;-81
2022/10/25 04:22:02;;;;;;;402.55;25.40;;;;;;;;;;6275165;22;20004;-82
2022/10/25 04:24:28;;;;;;;236.73;20.38;;;;;;;;;;6252716;22;20011;-83
2022/10/25 04:26:54;;;;;;;294.05;22.65;;;;;;;;;;6279717;22;19987;-82
2022/10/25 04:35:02;;;;;;;60.78;18.00;;;;;;;;;;6360489;22;20090;-83
2022/10/25 04:37:28;;;;;;;84.22;20.65;;;;;;;;;;6330498;22;20011;-84
2022/10/25 04:39:54;;;;;;;64.90;18.63;;;;;;;;;;6304994;22;20010;-82
2022/10/25 04:42:21;;;;;;;46.10;19.20;;;;;;;;;;6305680;22;20019;-83
2022/10/25 04:44:47;;;;;;;54.05;17.45;;;;;;;;;;6282016;22;20003;-86
2022/10/25 04:47:12;;;;;;;74.95;17.50;;;;;;;;;;6287572;22;19989;-85
2022/10/25 04:49:39;;;;;;;48.75;18.38;;;;;;;;;;6310290;22;19994;-84
2022/10/25 04:52:05;;;;;;;34.25;16.85;;;;;;;;;;6285002;22;20030;-85
2022/10/25 04:54:30;;;;;;;26.17;14.25;;;;;;;;;;6286372;22;19983;-83
2022/10/25 05:15:59;;;;;;;29.77;12.88;;;;;;;;;;6360164;22;20042;-82
2022/10/25 05:18:24;;;;;;;;;;;;;;;;;;6281188;22;20011;-81
2022/10/25 05:20:59;;;;;;;21.98;10.32;;;;;;;;;;6303178;22;20287;-82
2022/10/25 05:23:25;;;;;;;20.50;11.18;;;;;;;;;;6277686;22;20006;-81
2022/10/25 05:26:00;;;;;;;20.63;10.57;;;;;;;;;;6273299;22;20002;-82
2022/10/25 05:28:27;;;;;;;21.98;11.60;;;;;;;;;;6325620;22;20039;-83
2022/10/25 05:30:53;;;;;;;25.02;12.05;;;;;;;;;;6275503;22;20014;-82
2022/10/25 05:33:18;;;;;;;19.58;10.15;;;;;;;;;;6299709;22;20011;-82
2022/10/25 05:35:44;;;;;;;25.15;13.30;;;;;;;;;;6273292;22;20048;-82
2022/10/25 05:38:10;;;;;;;25.13;11.68;;;;;;;;;;6298427;22;20069;-83
2022/10/25 05:40:35;;;;;;;29.25;11.98;;;;;;;;;;6299265;22;20002;-83
2022/10/25 05:43:01;;;;;;;24.85;12.45;;;;;;;;;;6271224;22;20070;-83
2022/10/25 05:45:26;;;;;;;23.70;12.35;;;;;;;;;;6269581;22;20022;-82
2022/10/25 05:47:58;;;;;;;22.73;11.30;;;;;;;;;;6298193;22;20010;-84
2022/10/25 05:50:23;;;;;;;29.40;11.85;;;;;;;;;;6296403;22;20010;-83
2022/10/25 05:52:49;;;;;;;23.70;11.65;;;;;;;;;;6325386;22;19999;-83
2022/10/25 05:55:21;;;;;;;28.83;14.77;;;;;;;;;;6275320;22;20006;-83
2022/10/25 05:57:50;;;;;;;25.75;11.40;;;;;;;;;;6295484;22;20044;-83
2022/10/25 06:00:16;;;;;;;29.40;15.32;;;;;;;;;;6295072;22;19995;-82
2022/10/25 06:02:41;;;;;;;25.58;12.70;;;;;;;;;;6302829;22;19993;-83
2022/10/25 06:05:08;;;;;;;26.10;15.25;;;;;;;;;;6326773;22;20003;-86
2022/10/25 06:07:34;;;;;;;30.45;15.27;;;;;;;;;;6298598;22;20018;-81
2022/10/25 06:09:59;;;;;;;31.40;16.58;;;;;;;;;;6296424;22;20002;-81
2022/10/25 06:12:25;;;;;;;30.00;15.45;;;;;;;;;;6297879;22;20068;-82
2022/10/25 06:14:51;;;;;;;29.73;14.38;;;;;;;;;;6274699;22;20015;-81
2022/10/25 06:17:16;;;;;;;33.58;16.02;;;;;;;;;;6301432;22;20014;-82
2022/10/25 06:19:42;;;;;;;31.40;14.48;;;;;;;;;;6296379;22;20429;-83
2022/10/25 06:22:07;;;;;;;24.05;12.00;;;;;;;;;;6270598;22;20599;-81
2022/10/25 06:24:33;;;;;;;20.60;11.18;;;;;;;;;;6270270;22;20334;-81
2022/10/25 06:26:58;;;;;;;21.58;11.00;;;;;;;;;;6295974;22;20007;-82
2022/10/25 06:29:25;;;;;;;15.25;10.20;;;;;;;;;;6295625;22;19995;-82
2022/10/25 06:31:50;;;;;;;21.25;11.05;;;;;;;;;;6298438;22;19999;-82
2022/10/25 06:34:16;;;;;;;20.38;10.68;;;;;;;;;;6271736;22;19995;-82
2022/10/25 06:36:42;;;;;;;16.77;10.30;;;;;;;;;;6295410;22;20014;-84
2022/10/25 06:39:14;;;;;;;22.45;11.05;;;;;;;;;;6325461;22;20003;-81
2022/10/25 06:41:39;;;;;;;18.05;10.93;;;;;;;;;;6296874;22;20056;-83
2022/10/25 06:44:05;;;;;;;19.77;11.57;;;;;;;;;;6322452;22;20002;-82
2022/10/25 06:46:32;;;;;;;21.60;11.18;;;;;;;;;;6323512;22;20014;-83
2022/10/25 06:48:57;;;;;;;20.73;11.20;;;;;;;;;;6296470;22;20010;-82
2022/10/25 06:51:23;;;;;;;20.02;12.23;;;;;;;;;;6298572;22;20007;-81
2022/10/25 06:53:55;;;;;;;18.25;10.18;;;;;;;;;;6296294;22;20007;-83
2022/10/25 06:56:21;;;;;;;20.40;10.55;;;;;;;;;;6295102;22;20319;-81
2022/10/25 06:58:46;;;;;;;18.38;10.63;;;;;;;;;;6325658;22;20002;-83
2022/10/25 07:01:13;;;;;;;23.60;12.18;;;;;;;;;;6271306;22;20049;-82
2022/10/25 07:03:38;;;;;;;;;;;;;;;;;;6322665;22;20060;-82
2022/10/25 07:06:05;;;;;;;28.23;13.05;;;;;;;;;;6299199;22;19906;-82
2022/10/25 07:08:31;;;;;;;22.90;13.65;;;;;;;;;;6300710;22;19999;-83
2022/10/25 07:10:56;;;;;;;;;;;;;;;;;;6275484;22;20011;-83
2022/10/25 07:13:22;;;;;;;34.45;23.38;;;;;;;;;;6300118;22;19996;-82
2022/10/25 07:15:47;;;;;;;44.38;26.33;;;;;;;;;;6301808;22;20019;-85
2022/10/25 07:18:13;;;;;;;43.40;28.30;;;;;;;;;;6276372;22;20017;-83
2022/10/25 07:20:39;;;;;;;34.55;22.85;;;;;;;;;;6272901;22;20013;-83
2022/10/25 07:23:04;;;;;;;35.08;20.30;;;;;;;;;;6298654;22;20025;-84
2022/10/25 07:25:30;;;;;;;36.95;19.10;;;;;;;;;;6298655;22;20011;-82
2022/10/25 07:27:56;;;;;;;22.75;13.73;;;;;;;;;;6323299;22;19998;-83
2022/10/25 07:30:21;;;;;;;24.02;14.43;;;;;;;;;;6323821;22;20472;-84
2022/10/25 07:32:47;;;;;;;23.58;14.65;;;;;;;;;;6301163;22;20139;-82
2022/10/25 07:35:12;;;;;;;23.38;13.20;;;;;;;;;;6324467;22;19990;-81
2022/10/25 07:37:39;;;;;;;21.05;12.57;;;;;;;;;;6299819;22;20006;-84
2022/10/25 07:40:05;;;;;;;23.42;12.63;;;;;;;;;;6273783;22;20003;-83
2022/10/25 07:42:36;;;;;;;21.15;11.00;;;;;;;;;;6326192;22;20005;-83
2022/10/25 07:45:03;;;;;;;12.90;8.38;;;;;;;;;;6325897;22;20068;-81
2022/10/25 07:47:28;;;;;;;13.75;8.35;;;;;;;;;;6298205;22;20002;-82
2022/10/25 07:49:56;;;;;;;19.50;12.13;;;;;;;;;;6298591;22;20011;-82
2022/10/25 07:52:22;;;;;;;20.15;11.88;;;;;;;;;;6273414;22;20007;-80
2022/10/25 07:54:47;;;;;;;13.07;9.40;;;;;;;;;;6298680;22;20010;-82
2022/10/25 07:57:13;;;;;;;17.98;10.50;;;;;;;;;;6299329;22;20031;-82
2022/10/25 07:59:39;;;;;;;15.88;9.32;;;;;;;;;;6297248;22;20011;-83
2022/10/25 08:02:04;;;;;;;13.07;7.07;;;;;;;;;;6272484;22;19998;-82
2022/10/25 08:04:31;;;;;;;16.67;8.23;;;;;;;;;;6270593;22;20011;-83
2022/10/25 08:07:00;;;;;;;12.20;7.80;;;;;;;;;;6322473;22;19999;-81
2022/10/25 08:09:29;;;;;;;13.05;7.18;;;;;;;;;;6300243;22;20112;-81
2022/10/25 08:11:55;;;;;;;15.70;6.65;;;;;;;;;;6273989;22;20067;-82
2022/10/25 08:14:20;;;;;;;16.45;6.53;;;;;;;;;;6299751;22;20063;-83
2022/10/25 08:16:46;;;;;;;10.57;4.72;;;;;;;;;;6296281;22;20097;-82
2022/10/25 08:19:11;;;;;;;7.53;4.00;;;;;;;;;;6271524;22;19991;-84
2022/10/25 08:21:37;;;;;;;6.60;4.60;;;;;;;;;;6271453;22;20339;-82
2022/10/25 08:24:02;;;;;;;11.10;4.70;;;;;;;;;;6274714;22;20018;-81
2022/10/25 08:26:28;;;;;;;8.15;4.25;;;;;;;;;;6298364;22;20037;-83
2022/10/25 08:28:54;;;;;;;11.27;4.75;;;;;;;;;;6298984;22;20007;-82
2022/10/25 08:31:19;;;;;;;6.97;4.15;;;;;;;;;;6323865;22;20001;-82
2022/10/25 08:33:45;;;;;;;6.55;4.40;;;;;;;;;;6273225;22;20346;-81
2022/10/25 08:36:10;;;;;;;12.15;5.80;;;;;;;;;;6301632;22;20447;-83
2022/10/25 08:38:36;;;;;;;9.45;5.00;;;;;;;;;;6298740;22;20010;-82
2022/10/25 08:41:05;;;;;;;6.32;3.70;;;;;;;;;;6272822;22;20499;-83
2022/10/25 08:43:50;;;;;;;8.30;3.92;;;;;;;;;;6298631;22;20506;-82
2022/10/25 08:46:18;;;;;;;6.15;3.72;;;;;;;;;;6326598;22;20017;-82
2022/10/25 08:48:44;;;;;;;7.40;3.92;;;;;;;;;;6276108;22;20024;-81
2022/10/25 08:51:28;;;;;;;7.07;3.75;;;;;;;;;;6299707;22;20006;-84
2022/10/25 08:53:55;;;;;;;4.68;3.22;;;;;;;;;;6302406;22;20011;-83
2022/10/25 08:56:21;;;;;;;5.55;3.20;;;;;;;;;;6325191;22;20005;-83
2022/10/25 08:58:48;;;;;;;6.88;3.63;;;;;;;;;;6300720;22;20007;-83
2022/10/25 09:01:15;;;;;;;7.68;3.40;;;;;;;;;;6274545;22;19998;-82
2022/10/25 09:03:40;;;;;;;5.90;3.80;;;;;;;;;;6302464;22;20015;-82
2022/10/25 09:06:14;;;;;;;5.55;3.42;;;;;;;;;;6301623;22;19999;-84
2022/10/25 09:09:04;;;;;;;4.97;3.13;;;;;;;;;;6301002;22;20067;-83
2022/10/25 09:11:38;;;;;;;4.72;2.88;;;;;;;;;;6299845;22;20018;-80
2022/10/25 09:14:06;;;;;;;5.43;2.97;;;;;;;;;;6322790;22;20019;-83
2022/10/25 09:16:51;;;;;;;5.53;3.35;;;;;;;;;;6299094;22;20071;-84
2022/10/25 09:19:19;;;;;;;9.00;3.40;;;;;;;;;;6301198;22;20013;-82
2022/10/25 09:21:55;;;;;;;6.00;3.22;;;;;;;;;;6297289;22;20072;-82
2022/10/25 09:24:22;;;;;;;7.45;3.65;;;;;;;;;;6297217;22;20063;-85
2022/10/25 09:26:57;;;;;;;5.22;3.13;;;;;;;;;;6324559;22;20010;-84
2022/10/25 09:29:24;;;;;;;7.95;4.20;;;;;;;;;;6299340;22;20006;-84
2022/10/25 09:31:51;;;;;;;5.20;3.70;;;;;;;;;;6296986;22;20346;-82
2022/10/25 09:34:17;;;;;;;5.13;3.13;;;;;;;;;;6296800;22;20007;-84
2022/10/25 09:36:44;;;;;;;3.95;2.22;;;;;;;;;;6297976;22;20001;-82
2022/10/25 09:39:20;;;;;;;3.28;2.25;;;;;;;;;;6271872;22;20090;-82
2022/10/25 09:41:47;;;;;;;3.15;1.95;;;;;;;;;;6299668;22;20007;-82
2022/10/25 09:44:39;;;;;;;3.85;1.88;;;;;;;;;;6270978;22;19999;-81
2022/10/25 09:47:29;;;;;;;4.80;1.92;;;;;;;;;;6317633;22;20013;-82
2022/10/25 09:52:36;;;;;;;2.10;1.15;;;;;;;;;;6348041;22;20027;-82
2022/10/25 09:55:08;;;;;;;2.50;1.45;;;;;;;;;;6325939;22;20032;-83
2022/10/25 09:57:34;;;;;;;4.43;1.55;;;;;;;;;;6299536;22;20006;-83
2022/10/25 09:59:59;;;;;;;2.60;1.40;;;;;;;;;;6296244;22;20086;-82
2022/10/25 10:02:24;;;;;;;;;;;;;;;;;;6299584;22;20030;-81
2022/10/25 10:04:50;;;;;;;2.13;1.27;;;;;;;;;;6298810;22;19941;-82
2022/10/25 10:07:15;;;;;;;;;;;;;;;;;;6276720;22;20014;-84
2022/10/25 10:09:42;;;;;;;3.08;1.60;;;;;;;;;;6356508;22;19908;-82
2022/10/25 10:12:08;;;;;;;;;;;;;;;;;;6306989;22;20011;-83
2022/10/25 10:14:35;;;;;;;2.60;1.20;;;;;;;;;;6305588;22;19902;-84
2022/10/25 10:17:02;;;;;;;2.53;1.40;;;;;;;;;;6310877;22;20033;-84
2022/10/25 10:19:28;;;;;;;;;;;;;;;;;;6332472;22;19999;-82
2022/10/25 10:21:55;;;;;;;4.25;1.92;;;;;;;;;;6308093;22;19996;-84
2022/10/25 10:24:21;;;;;;;;;;;;;;;;;;6308834;22;20006;-82
2022/10/25 10:26:54;;;;;;;3.58;1.60;;;;;;;;;;6309886;22;19914;-84
2022/10/25 10:29:21;;;;;;;2.55;1.30;;;;;;;;;;6311451;22;20022;-84
2022/10/25 10:31:47;;;;;;;2.15;1.23;;;;;;;;;;6284061;22;20024;-82
2022/10/25 10:34:23;;;;;;;2.65;1.40;;;;;;;;;;6284214;22;20011;-84
2022/10/25 10:37:08;;;;;;;4.35;1.20;;;;;;;;;;6311187;22;20059;-83
2022/10/25 10:39:33;;;;;;;3.72;1.38;;;;;;;;;;6331003;22;20003;-84
2022/10/25 10:42:02;;;;;;;;;;;;;;;;;;6279591;22;20014;-82
2022/10/25 10:44:50;;;;;;;3.00;1.30;;;;;;;;;;6332966;22;20287;-83
2022/10/25 10:47:19;;;;;;;2.20;1.27;;;;;;;;;;6331830;22;20018;-83
2022/10/25 10:49:50;;;;;;;2.78;1.50;;;;;;;;;;6333719;22;20081;-81
2022/10/25 10:52:30;;;;;;;4.43;1.70;;;;;;;;;;6332005;22;20047;-83
2022/10/25 10:54:56;;;;;;;4.03;1.73;;;;;;;;;;6302633;22;20006;-82
2022/10/25 10:57:24;;;;;;;;;;;;;;;;;;6281934;22;20031;-85
2022/10/25 10:59:54;;;;;;;3.33;1.95;;;;;;;;;;6307258;22;19906;-84
2022/10/25 11:02:21;;;;;;;3.30;1.85;;;;;;;;;;6308969;22;19998;-83
2022/10/25 11:04:48;;;;;;;5.32;1.98;;;;;;;;;;6333470;22;20015;-82
2022/10/25 11:07:17;;;;;;;2.45;1.58;;;;;;;;;;6305656;22;20063;-84
2022/10/25 11:09:44;;;;;;;4.32;1.92;;;;;;;;;;6307613;22;20026;-82
2022/10/25 11:12:09;;;;;;;;;;;;;;;;;;6306227;22;20006;-81
2022/10/25 11:14:35;;;;;;;4.53;1.80;;;;;;;;;;6302876;22;19945;-82
2022/10/25 11:17:00;;;;;;;;;;;;;;;;;;6281258;22;20015;-82
2022/10/25 11:19:29;;;;;;;7.68;2.08;;;;;;;;;;6299592;22;19906;-84
2022/10/25 11:21:54;;;;;;;5.28;2.45;;;;;;;;;;6301952;22;20423;-82
2022/10/25 11:24:34;;;;;;;6.00;2.40;;;;;;;;;;6297985;22;20011;-84
2022/10/25 11:27:00;;;;;;;6.45;3.00;;;;;;;;;;6275499;22;20421;-82
2022/10/25 11:32:10;;;;;;;6.60;2.75;;;;;;;;;;6326220;22;20034;-83
2022/10/25 11:34:42;;;;;;;6.07;2.65;;;;;;;;;;6305238;22;20015;-83
2022/10/25 11:37:43;;;;;;;9.77;5.20;;;;;;;;;;6302327;22;20010;-82
2022/10/25 11:40:12;;;;;;;15.73;7.82;;;;;;;;;;6173651;23;20016;-82
2022/10/25 11:42:50;;;;;;;13.60;7.90;;;;;;;;;;6248744;22;19999;-83
2022/10/25 11:45:23;;;;;;;8.98;3.78;;;;;;;;;;6327525;22;20006;-82
2022/10/25 11:47:52;;;;;;;9.02;3.75;;;;;;;;;;6328224;22;20010;-83
2022/10/25 11:50:17;;;;;;;12.82;4.05;;;;;;;;;;6273112;22;20001;-82
2022/10/25 11:53:02;;;;;;;7.10;4.05;;;;;;;;;;6302195;22;20015;-82
2022/10/25 11:55:31;;;;;;;13.75;5.38;;;;;;;;;;6302068;22;20014;-84
2022/10/25 11:58:03;;;;;;;9.82;5.50;;;;;;;;;;6355475;22;20002;-83
2022/10/25 12:00:45;;;;;;;7.35;4.38;;;;;;;;;;6328518;22;20007;-83
2022/10/25 12:03:22;;;;;;;7.85;5.10;;;;;;;;;;6274525;22;20026;-83
2022/10/25 12:05:58;;;;;;;9.93;5.28;;;;;;;;;;6303255;22;20011;-84
2022/10/25 12:08:29;;;;;;;8.70;4.53;;;;;;;;;;6303890;22;20036;-83
2022/10/25 12:11:06;;;;;;;9.20;4.63;;;;;;;;;;6304057;22;20010;-83
2022/10/25 12:13:54;;;;;;;8.02;4.60;;;;;;;;;;6304173;22;20007;-83
2022/10/25 12:16:20;;;;;;;;;;;;;;;;;;6331123;22;20014;-82
2022/10/25 12:18:46;;;;;;;7.07;3.38;;;;;;;;;;6330480;22;19902;-83
2022/10/25 12:21:17;;;;;;;6.13;2.80;;;;;;;;;;6329168;22;20040;-81
2022/10/25 12:23:44;;;;;;;6.82;3.65;;;;;;;;;;6297287;22;20461;-81
2022/10/25 12:26:21;;;;;;;7.25;4.05;;;;;;;;;;6301847;22;20014;-83
2022/10/25 12:28:47;;;;;;;12.45;5.45;;;;;;;;;;6301304;22;20010;-84
2022/10/25 12:31:13;;;;;;;10.40;4.97;;;;;;;;;;6300341;22;19994;-83
2022/10/25 12:33:38;;;;;;;;;;;;;;;;;;6304474;22;20062;-82
2022/10/25 12:36:05;;;;;;;8.32;4.07;;;;;;;;;;6329550;22;20357;-84
2022/10/25 12:38:35;;;;;;;7.85;3.60;;;;;;;;;;6301550;22;20072;-82
2022/10/25 12:41:05;;;;;;;8.60;2.58;;;;;;;;;;6275415;22;20013;-82
2022/10/25 12:43:43;;;;;;;4.93;2.30;;;;;;;;;;6299237;22;20037;-81
2022/10/25 12:49:10;;;;;;;4.85;2.17;;;;;;;;;;6342538;22;20073;-83
2022/10/25 12:51:48;;;;;;;8.40;2.30;;;;;;;;;;6298544;22;20010;-82
2022/10/25 12:54:32;;;;;;;3.13;1.95;;;;;;;;;;6301853;22;20023;-81
2022/10/25 12:57:17;;;;;;;6.50;2.10;;;;;;;;;;6326524;22;20034;-81
2022/10/25 12:59:49;;;;;;;4.20;2.20;;;;;;;;;;6301776;22;20097;-82
2022/10/25 13:02:23;;;;;;;5.43;1.98;;;;;;;;;;6302343;22;20033;-83
2022/10/25 13:07:19;;;;;;;8.63;6.63;;;;;;;;;;6357239;22;20100;-82
2022/10/25 13:09:45;;;;;;;5.00;3.70;;;;;;;;;;6304746;22;19987;-83
2022/10/25 13:12:29;;;;;;;7.03;2.58;;;;;;;;;;6277555;22;20350;-81
2022/10/25 13:14:57;;;;;;;6.00;2.38;;;;;;;;;;6330951;22;20402;-84
2022/10/25 13:17:42;;;;;;;3.83;1.90;;;;;;;;;;6326839;22;20007;-82
2022/10/25 13:20:22;;;;;;;7.03;2.58;;;;;;;;;;6301866;22;20010;-83
2022/10/25 13:22:48;;;;;;;4.82;2.28;;;;;;;;;;6328771;22;20011;-81
2022/10/25 13:25:18;;;;;;;6.40;2.13;;;;;;;;;;6302965;22;19998;-81
2022/10/25 13:28:03;;;;;;;4.60;2.13;;;;;;;;;;6303230;22;20010;-83
2022/10/25 13:30:33;;;;;;;3.65;2.40;;;;;;;;;;6328382;22;20323;-85
2022/10/25 13:33:18;;;;;;;4.07;2.35;;;;;;;;;;6328442;22;20022;-81
2022/10/25 13:35:43;;;;;;;8.70;3.50;;;;;;;;;;6329529;22;20007;-82
2022/10/25 13:38:14;;;;;;;6.28;3.67;;;;;;;;;;6331405;22;20001;-83
2022/10/25 13:40:39;;;;;;;6.47;3.30;;;;;;;;;;6328849;22;20017;-85
2022/10/25 13:43:07;;;;;;;11.43;5.22;;;;;;;;;;6303467;22;19999;-84
2022/10/25 13:45:33;;;;;;;10.60;4.95;;;;;;;;;;6330003;22;20085;-83
2022/10/25 13:48:06;;;;;;;12.18;6.30;;;;;;;;;;6303079;22;20010;-83
2022/10/25 13:50:32;;;;;;;18.92;11.35;;;;;;;;;;6304492;22;20035;-84
2022/10/25 13:53:11;;;;;;;25.65;13.00;;;;;;;;;;6275947;22;20006;-81
2022/10/25 13:55:37;;;;;;;22.90;11.73;;;;;;;;;;6308056;22;20022;-82
2022/10/25 13:58:21;;;;;;;24.23;9.43;;;;;;;;;;6305171;22;20050;-84
2022/10/25 14:00:49;;;;;;;14.85;8.38;;;;;;;;;;6331887;22;20010;-84
2022/10/25 14:03:15;;;;;;;16.40;6.65;;;;;;;;;;6282122;22;20006;-84
2022/10/25 14:09:10;;;;;;;8.38;5.22;;;;;;;;;;6356678;22;20053;-82
2022/10/25 14:11:36;;;;;;;;;;;;;;;;;;6329536;22;20007;-83
2022/10/25 14:14:01;;;;;;;5.20;2.97;;;;;;;;;;6306025;22;19910;-81
2022/10/25 14:16:27;;;;;;;;;;;;;;;;;;6333578;22;20028;-84
2022/10/25 14:18:52;;;;;;;5.05;2.15;;;;;;;;;;6306306;22;19948;-82
2022/10/25 14:21:18;;;;;;;8.23;2.78;;;;;;;;;;6303258;22;20038;-82
2022/10/25 14:23:43;;;;;;;6.30;2.90;;;;;;;;;;6278547;22;20022;-83
2022/10/25 14:26:12;;;;;;;10.90;2.80;;;;;;;;;;6277894;22;20017;-84
2022/10/25 14:28:41;;;;;;;9.18;2.88;;;;;;;;;;6307282;22;20068;-85
2022/10/25 14:31:07;;;;;;;5.00;3.22;;;;;;;;;;6302363;22;20026;-84
2022/10/25 14:33:33;;;;;;;7.75;2.92;;;;;;;;;;6277715;22;20003;-83
2022/10/25 14:36:05;;;;;;;5.00;3.00;;;;;;;;;;6303406;22;20013;-84
2022/10/25 14:38:31;;;;;;;7.78;3.00;;;;;;;;;;6304434;22;20014;-85
2022/10/25 14:40:56;;;;;;;;;;;;;;;;;;6307283;22;19975;-83
2022/10/25 14:43:33;;;;;;;10.10;3.97;;;;;;;;;;6309271;22;20375;-83
2022/10/25 14:46:22;;;;;;;9.85;5.70;;;;;;;;;;6359343;22;20030;-81
2022/10/25 14:48:48;;;;;;;11.60;5.85;;;;;;;;;;6305130;22;20092;-83
2022/10/25 14:51:13;;;;;;;13.25;5.88;;;;;;;;;;6303314;22;20006;-82
2022/10/25 14:53:46;;;;;;;9.63;6.38;;;;;;;;;;6305346;22;20017;-82
2022/10/25 14:56:17;;;;;;;12.40;6.25;;;;;;;;;;6303895;22;20015;-84
2022/10/25 14:58:43;;;;;;;13.75;6.90;;;;;;;;;;6275290;22;20006;-82
2022/10/25 15:01:09;;;;;;;13.75;6.65;;;;;;;;;;6277769;22;20005;-82
2022/10/25 15:03:39;;;;;;;14.32;6.32;;;;;;;;;;6303860;22;20109;-82
2022/10/25 15:06:04;;;;;;;11.95;5.82;;;;;;;;;;6302162;22;20568;-83
2022/10/25 15:08:31;;;;;;;13.00;6.25;;;;;;;;;;6278760;22;20060;-82
2022/10/25 15:10:59;;;;;;;12.80;6.60;;;;;;;;;;6276057;22;20010;-82
2022/10/25 15:13:26;;;;;;;12.43;5.60;;;;;;;;;;6301403;22;20018;-82
2022/10/25 15:15:52;;;;;;;16.88;7.38;;;;;;;;;;6304003;22;20010;-84
2022/10/25 15:18:39;;;;;;;14.38;6.75;;;;;;;;;;6306918;22;20335;-84
2022/10/25 15:21:18;;;;;;;15.85;7.43;;;;;;;;;;6334088;22;20062;-84
2022/10/25 15:23:44;;;;;;;13.30;7.22;;;;;;;;;;6328934;22;20067;-83